Time;durP1;ratioP1;P1;durP2;ratioP2;P2;SDS_P1;SDS_P2;PMS_P1;PMS_P2;Temp;Humidity;BMP_temperature;BMP_pressure;BME280_temperature;BME280_humidity;BME280_pressure;Samples;Min_cycle;Max_cycle;Signal;HPM_P1;HPM_P2
2021/07/09 00:01:06;;;;;;;12.23;7.03;;;;;;;16.55;100.00;101027.13;4994727;28;20483;-85
2021/07/09 00:03:32;;;;;;;10.27;6.55;;;;;;;16.57;100.00;101025.31;4994041;28;20030;-85
2021/07/09 00:05:58;;;;;;;10.32;5.82;;;;;;;16.49;100.00;101037.81;4993897;28;20027;-85
2021/07/09 00:08:23;;;;;;;9.20;6.60;;;;;;;16.50;100.00;101034.31;4994229;28;20030;-85
2021/07/09 00:10:48;;;;;;;9.57;7.45;;;;;;;16.65;100.00;101034.66;4994026;28;20057;-85
2021/07/09 00:13:14;;;;;;;10.20;7.40;;;;;;;16.71;100.00;101031.81;4979064;28;20117;-85
2021/07/09 00:15:39;;;;;;;10.07;7.80;;;;;;;16.74;100.00;101044.78;4982994;28;20028;-85
2021/07/09 00:18:04;;;;;;;13.07;8.63;;;;;;;16.79;100.00;101035.03;4982811;28;20422;-85
2021/07/09 00:20:29;;;;;;;12.48;8.25;;;;;;;16.83;100.00;101033.16;4983070;28;20061;-85
2021/07/09 00:22:55;;;;;;;10.65;8.13;;;;;;;16.82;100.00;101023.59;4982996;28;20123;-85
2021/07/09 00:25:22;;;;;;;12.35;9.52;;;;;;;16.79;100.00;101020.19;5000375;28;20501;-85
2021/07/09 00:27:47;;;;;;;13.40;9.30;;;;;;;16.75;100.00;101015.97;4982684;28;20521;-85
2021/07/09 00:30:13;;;;;;;11.07;9.50;;;;;;;16.78;100.00;101017.63;5000211;28;20026;-86
2021/07/09 00:32:38;;;;;;;11.23;9.43;;;;;;;16.83;100.00;101014.81;4983496;28;20371;-85
2021/07/09 00:35:04;;;;;;;11.80;8.88;;;;;;;16.71;100.00;101009.09;5000330;28;20026;-85
2021/07/09 00:37:29;;;;;;;13.48;9.07;;;;;;;16.72;100.00;101012.59;4982793;28;20164;-85
2021/07/09 00:39:55;;;;;;;11.50;8.90;;;;;;;16.68;100.00;101014.44;4982821;28;20164;-85
2021/07/09 00:42:20;;;;;;;12.52;8.63;;;;;;;16.67;100.00;101009.25;5000200;28;20399;-85
2021/07/09 00:44:46;;;;;;;17.98;9.05;;;;;;;16.66;100.00;101007.56;4982775;28;20072;-85
2021/07/09 00:47:12;;;;;;;11.45;9.35;;;;;;;16.65;100.00;101006.69;5000423;28;20034;-85
2021/07/09 00:49:37;;;;;;;12.88;9.18;;;;;;;16.65;100.00;101011.94;4983167;28;20505;-85
2021/07/09 00:52:03;;;;;;;13.40;9.52;;;;;;;16.58;100.00;101010.44;4989363;28;20371;-85
2021/07/09 00:54:28;;;;;;;11.50;8.57;;;;;;;16.56;100.00;101007.00;4983074;28;20033;-86
2021/07/09 00:56:53;;;;;;;11.88;9.02;;;;;;;16.55;100.00;101015.78;4982561;28;20044;-85
2021/07/09 00:59:23;;;;;;;11.63;9.15;;;;;;;16.56;100.00;101020.13;4982649;28;20022;-85
2021/07/09 01:01:48;;;;;;;13.07;8.52;;;;;;;16.50;100.00;101015.09;5000170;28;20064;-85
2021/07/09 01:04:14;;;;;;;10.13;7.85;;;;;;;16.49;100.00;101016.00;4982801;28;20022;-85
2021/07/09 01:06:40;;;;;;;10.48;7.82;;;;;;;16.54;100.00;101024.56;4982498;28;20030;-85
2021/07/09 01:09:05;;;;;;;11.52;7.75;;;;;;;16.58;100.00;101024.41;4999987;28;20398;-85
2021/07/09 01:11:30;;;;;;;12.05;7.78;;;;;;;16.60;100.00;101023.50;5000288;28;20026;-85
2021/07/09 01:13:56;;;;;;;11.60;7.68;;;;;;;16.46;100.00;101026.59;4982586;28;20034;-85
2021/07/09 01:16:21;;;;;;;9.73;7.47;;;;;;;16.46;100.00;101023.97;4982423;28;20062;-85
2021/07/09 01:18:47;;;;;;;11.75;7.80;;;;;;;16.41;100.00;101020.66;5000333;28;20037;-85
2021/07/09 01:21:12;;;;;;;8.60;7.50;;;;;;;16.38;100.00;101018.13;4982644;28;20025;-85
2021/07/09 01:23:40;;;;;;;11.73;8.07;;;;;;;16.36;100.00;101012.97;4982445;28;20069;-85
2021/07/09 01:26:06;;;;;;;9.60;6.38;;;;;;;16.41;100.00;101008.44;4979107;28;20022;-85
2021/07/09 01:28:31;;;;;;;9.32;6.70;;;;;;;16.44;100.00;101002.22;4978203;28;20517;-85
2021/07/09 01:30:56;;;;;;;10.75;6.22;;;;;;;16.44;100.00;101004.84;4978430;28;20037;-85
2021/07/09 01:33:22;;;;;;;11.63;6.07;;;;;;;16.41;100.00;101007.56;4995575;28;20069;-85
2021/07/09 01:35:48;;;;;;;9.40;5.82;;;;;;;16.44;100.00;101007.44;4978310;28;20128;-85
2021/07/09 01:38:13;;;;;;;8.48;5.43;;;;;;;16.39;100.00;101004.16;4977975;28;20113;-85
2021/07/09 01:40:40;;;;;;;12.50;5.50;;;;;;;16.38;100.00;100998.06;4978121;28;20113;-85
2021/07/09 01:43:06;;;;;;;9.50;4.95;;;;;;;16.43;100.00;101005.75;4980570;28;20026;-85
2021/07/09 01:45:33;;;;;;;9.27;5.18;;;;;;;16.40;100.00;100996.25;4997469;28;20036;-85
2021/07/09 01:47:58;;;;;;;9.90;5.13;;;;;;;16.40;100.00;100985.75;4995591;28;20033;-85
2021/07/09 01:50:25;;;;;;;6.97;5.00;;;;;;;16.38;100.00;100992.84;4995346;28;20030;-85
2021/07/09 01:52:51;;;;;;;12.45;5.82;;;;;;;16.33;100.00;100989.53;4977760;28;20121;-85
2021/07/09 01:55:17;;;;;;;8.55;5.53;;;;;;;16.27;100.00;101001.06;4977750;28;20049;-86
2021/07/09 01:57:43;;;;;;;9.60;5.97;;;;;;;16.25;100.00;101004.63;4977622;28;20022;-85
2021/07/09 02:00:12;;;;;;;12.65;6.43;;;;;;;16.19;100.00;101005.69;4977824;28;20446;-85
2021/07/09 02:02:39;;;;;;;10.15;6.40;;;;;;;16.09;100.00;100999.91;4977731;28;20029;-85
2021/07/09 02:05:08;;;;;;;12.70;5.95;;;;;;;16.14;100.00;100999.78;4977607;28;20023;-85
2021/07/09 02:07:34;;;;;;;10.35;6.03;;;;;;;16.20;100.00;101004.81;4977458;28;20022;-86
2021/07/09 02:09:59;;;;;;;10.73;6.22;;;;;;;16.17;100.00;101011.91;4977870;28;20053;-86
2021/07/09 02:12:27;;;;;;;11.23;6.25;;;;;;;16.15;100.00;101011.94;4977594;28;20502;-86
2021/07/09 02:14:53;;;;;;;9.20;6.47;;;;;;;16.30;100.00;101006.19;4994936;28;20030;-86
2021/07/09 02:17:21;;;;;;;7.13;5.82;;;;;;;16.26;100.00;101009.81;4994872;28;20032;-85
2021/07/09 02:19:48;;;;;;;9.23;6.50;;;;;;;16.12;100.00;101006.81;4977460;28;20028;-85
2021/07/09 02:22:15;;;;;;;10.25;6.80;;;;;;;16.10;100.00;101029.56;4977425;28;20104;-85
2021/07/09 02:24:43;;;;;;;10.18;6.38;;;;;;;16.08;100.00;101031.38;4977370;28;20027;-85
2021/07/09 02:27:09;;;;;;;10.30;6.55;;;;;;;16.13;100.00;101032.06;4983183;23;1020244;-86
2021/07/09 02:29:35;;;;;;;9.02;6.65;;;;;;;16.13;100.00;101029.44;4977976;28;20026;-86
2021/07/09 02:32:04;;;;;;;12.65;7.65;;;;;;;16.11;100.00;101032.13;4977593;28;20410;-86
2021/07/09 02:34:30;;;;;;;13.75;7.60;;;;;;;16.16;100.00;101031.13;4977850;28;20022;-86
2021/07/09 02:36:56;;;;;;;11.85;7.38;;;;;;;16.14;100.00;101032.94;4977745;28;20025;-86
2021/07/09 02:39:25;;;;;;;10.10;6.72;;;;;;;16.12;100.00;101027.75;4978073;28;20022;-86
2021/07/09 02:41:54;;;;;;;9.82;6.90;;;;;;;16.18;100.00;101026.69;4978568;28;20062;-86
2021/07/09 02:44:21;;;;;;;8.68;5.32;;;;;;;16.09;100.00;101030.47;4995509;28;20022;-86
2021/07/09 02:46:46;;;;;;;8.32;5.05;;;;;;;16.14;100.00;101015.47;4977695;28;20023;-86
2021/07/09 02:49:11;;;;;;;10.27;5.97;;;;;;;16.24;100.00;101005.56;4977677;28;20030;-86
2021/07/09 02:51:37;;;;;;;9.10;5.80;;;;;;;16.19;100.00;101010.06;4995111;28;20041;-87
2021/07/09 02:54:03;;;;;;;7.28;5.45;;;;;;;16.16;100.00;101013.66;4977568;28;20069;-87
2021/07/09 02:56:28;;;;;;;9.70;5.18;;;;;;;16.15;100.00;101011.94;4977580;28;20026;-86
2021/07/09 02:58:54;;;;;;;7.60;4.95;;;;;;;16.10;100.00;101004.25;4994979;28;20028;-86
2021/07/09 03:01:19;;;;;;;11.98;5.30;;;;;;;16.08;100.00;101003.47;4977473;28;20437;-86
2021/07/09 03:03:45;;;;;;;7.50;5.18;;;;;;;16.14;100.00;101006.78;4977512;28;20026;-86
2021/07/09 03:06:10;;;;;;;8.48;5.07;;;;;;;16.11;100.00;101013.81;4994847;28;20113;-86
2021/07/09 03:08:35;;;;;;;9.70;4.90;;;;;;;16.15;100.00;101001.47;4977555;28;20030;-87
2021/07/09 03:11:01;;;;;;;8.18;4.70;;;;;;;16.15;100.00;100996.25;4994756;28;20088;-87
2021/07/09 03:13:26;;;;;;;9.95;4.88;;;;;;;16.15;100.00;100990.16;4977422;28;20026;-87
2021/07/09 03:15:51;;;;;;;7.93;4.63;;;;;;;16.16;100.00;100992.72;4994689;28;20534;-86
2021/07/09 03:18:17;;;;;;;7.72;4.63;;;;;;;16.16;100.00;100990.09;4977229;28;20394;-86
2021/07/09 03:20:44;;;;;;;10.30;4.65;;;;;;;16.18;100.00;100992.66;4977290;28;20493;-87
2021/07/09 03:23:11;;;;;;;7.57;4.57;;;;;;;16.19;100.00;100991.75;4977093;28;20061;-87
2021/07/09 03:25:36;;;;;;;7.18;4.55;;;;;;;16.13;100.00;100995.44;4977093;28;20398;-87
2021/07/09 03:28:10;;;;;;;7.63;4.97;;;;;;;16.17;100.00;100996.22;4976943;28;20061;-86
2021/07/09 03:30:36;;;;;;;9.05;4.63;;;;;;;16.22;100.00;101002.97;4977191;28;20048;-86
2021/07/09 03:33:07;;;;;;;7.50;4.70;;;;;;;16.18;100.00;100995.28;4994516;28;20062;-87
2021/07/09 03:35:32;;;;;;;6.95;4.88;;;;;;;16.16;100.00;100997.94;4976721;28;20054;-87
2021/07/09 03:38:05;;;;;;;8.70;5.55;;;;;;;16.22;100.00;101002.97;4976813;28;20172;-87
2021/07/09 03:40:30;;;;;;;6.90;4.70;;;;;;;16.22;100.00;101002.13;4976981;28;20033;-86
2021/07/09 03:42:56;;;;;;;8.75;5.13;;;;;;;16.17;100.00;100999.69;4976884;28;20018;-86
2021/07/09 03:45:21;;;;;;;9.18;4.75;;;;;;;16.18;100.00;100997.91;4976848;28;20066;-87
2021/07/09 03:47:47;;;;;;;8.80;5.43;;;;;;;16.15;100.00;100987.53;4976174;28;20573;-87
2021/07/09 03:50:14;;;;;;;10.45;5.13;;;;;;;16.24;100.00;100988.06;4976735;28;20026;-87
2021/07/09 03:52:45;;;;;;;9.55;5.53;;;;;;;16.29;100.00;100990.53;4993991;28;20088;-86
2021/07/09 03:55:10;;;;;;;9.68;5.75;;;;;;;16.33;100.00;100979.06;4994154;28;20093;-86
2021/07/09 03:57:36;;;;;;;14.93;5.60;;;;;;;16.24;100.00;100976.75;4976490;28;20022;-86
2021/07/09 04:00:06;;;;;;;13.35;5.28;;;;;;;16.26;100.00;100980.19;4976665;28;20019;-86
2021/07/09 04:02:31;;;;;;;11.88;5.60;;;;;;;16.30;100.00;100974.78;4976546;28;20014;-86
2021/07/09 04:04:56;;;;;;;12.15;5.60;;;;;;;16.37;100.00;100974.56;4976523;28;20071;-86
2021/07/09 04:07:22;;;;;;;9.00;4.78;;;;;;;16.43;100.00;100976.94;4993976;28;20023;-85
2021/07/09 04:09:57;;;;;;;11.48;5.75;;;;;;;16.46;100.00;100967.22;4976428;28;20483;-85
2021/07/09 04:12:22;;;;;;;9.73;4.97;;;;;;;16.48;100.00;100957.56;4994266;28;20026;-85
2021/07/09 04:14:48;;;;;;;12.15;5.53;;;;;;;16.51;100.00;100957.44;4976459;28;20177;-85
2021/07/09 04:17:13;;;;;;;8.23;5.70;;;;;;;16.57;100.00;100945.91;4976414;28;20056;-85
2021/07/09 04:19:38;;;;;;;9.43;5.20;;;;;;;16.61;100.00;100944.00;4976355;28;20106;-85
2021/07/09 04:22:04;;;;;;;8.38;5.07;;;;;;;16.56;100.00;100939.81;4976502;28;20022;-85
2021/07/09 04:24:29;;;;;;;7.43;5.30;;;;;;;16.59;100.00;100928.34;4993814;28;20035;-85
2021/07/09 04:26:54;;;;;;;10.30;5.47;;;;;;;16.53;100.00;100928.56;4976064;28;20371;-85
2021/07/09 04:29:23;;;;;;;8.98;6.20;;;;;;;16.38;100.00;100930.00;4976215;28;20038;-85
2021/07/09 04:31:48;;;;;;;7.53;5.50;;;;;;;16.44;100.00;100939.38;4993984;28;20038;-85
2021/07/09 04:34:13;;;;;;;11.32;5.72;;;;;;;16.43;100.00;100925.44;4976245;28;20467;-85
2021/07/09 04:36:38;;;;;;;8.82;5.80;;;;;;;16.50;100.00;100937.41;4993657;28;20030;-85
2021/07/09 04:39:04;;;;;;;8.57;5.47;;;;;;;16.55;100.00;100942.47;4976239;28;20026;-85
2021/07/09 04:41:29;;;;;;;9.80;5.72;;;;;;;16.58;100.00;100944.97;4976313;28;20113;-85
2021/07/09 04:43:57;;;;;;;7.88;5.63;;;;;;;16.59;100.00;100938.81;4993738;28;20026;-85
2021/07/09 04:46:23;;;;;;;7.60;5.47;;;;;;;16.58;100.00;100940.59;4993540;28;20069;-85
2021/07/09 04:48:48;;;;;;;9.18;5.97;;;;;;;16.59;100.00;100938.81;4993445;28;20022;-85
2021/07/09 04:51:13;;;;;;;10.70;5.93;;;;;;;16.57;100.00;100945.91;4976265;28;20503;-85
2021/07/09 04:53:44;;;;;;;8.77;5.90;;;;;;;16.55;100.00;100947.72;4976237;28;20033;-85
2021/07/09 04:56:09;;;;;;;11.25;5.85;;;;;;;16.61;100.00;100944.00;4976134;28;20045;-85
2021/07/09 04:58:34;;;;;;;10.70;6.38;;;;;;;16.61;100.00;100941.41;4976003;28;20478;-85
2021/07/09 05:01:00;;;;;;;9.32;5.72;;;;;;;16.67;100.00;100939.41;4979201;28;20489;-85
2021/07/09 05:03:25;;;;;;;8.82;6.72;;;;;;;16.73;100.00;100946.19;4979749;28;20057;-85
2021/07/09 05:05:57;;;;;;;12.55;6.78;;;;;;;16.76;100.00;100944.31;4997422;28;20116;-85
2021/07/09 05:08:22;;;;;;;10.73;6.13;;;;;;;16.79;100.00;100944.22;4980047;28;20574;-85
2021/07/09 05:10:52;;;;;;;9.05;6.40;;;;;;;16.90;100.00;100948.19;4997036;28;20117;-85
2021/07/09 05:13:18;;;;;;;8.10;5.93;;;;;;;16.89;100.00;100951.72;4979177;28;20046;-85
2021/07/09 05:15:48;;;;;;;10.82;6.70;;;;;;;16.97;100.00;100947.91;4979704;28;20022;-85
2021/07/09 05:18:14;;;;;;;8.90;5.28;;;;;;;17.05;100.00;100944.97;4997351;28;20034;-85
2021/07/09 05:20:39;;;;;;;10.65;6.40;;;;;;;17.03;100.00;100939.81;4979485;28;20027;-85
2021/07/09 05:23:07;;;;;;;8.80;6.03;;;;;;;17.19;100.00;100940.03;4996898;28;20030;-85
2021/07/09 05:25:33;;;;;;;8.77;6.00;;;;;;;17.29;100.00;100939.69;4979274;28;20549;-85
2021/07/09 05:27:58;;;;;;;12.85;5.93;;;;;;;17.40;100.00;100937.50;4996479;28;20125;-85
2021/07/09 05:30:23;;;;;;;8.95;5.93;;;;;;;17.43;100.00;100930.34;4996678;28;20478;-85
2021/07/09 05:32:55;;;;;;;13.18;5.93;;;;;;;17.59;100.00;100930.56;4979122;28;20525;-85
2021/07/09 05:35:20;;;;;;;8.13;5.65;;;;;;;17.77;100.00;100925.47;4979728;28;20398;-84
2021/07/09 05:37:45;;;;;;;8.32;5.78;;;;;;;18.01;100.00;100927.09;4979041;28;20018;-84
2021/07/09 05:40:11;;;;;;;11.93;6.00;;;;;;;18.09;100.00;100924.13;4979271;28;20122;-85
2021/07/09 05:42:41;;;;;;;8.35;5.75;;;;;;;17.94;100.00;100930.88;4978981;28;20113;-85
2021/07/09 05:45:07;;;;;;;8.00;5.13;;;;;;;18.07;100.00;100934.69;4978760;28;20034;-86
2021/07/09 05:47:33;;;;;;;11.85;5.45;;;;;;;18.08;100.00;100925.91;4979019;28;20026;-85
2021/07/09 05:49:58;;;;;;;10.27;5.38;;;;;;;18.20;100.00;100926.28;4978907;28;20438;-87
2021/07/09 05:52:24;;;;;;;10.60;5.43;;;;;;;18.20;100.00;100927.13;4978887;28;20026;-86
2021/07/09 05:54:49;;;;;;;8.68;4.97;;;;;;;18.32;100.00;100923.13;4979005;28;20391;-86
2021/07/09 05:57:14;;;;;;;7.65;5.00;;;;;;;18.20;100.00;100939.41;4979528;28;20022;-86
2021/07/09 05:59:39;;;;;;;12.57;5.53;;;;;;;18.05;100.00;100936.53;4979092;28;20521;-85
2021/07/09 06:02:05;;;;;;;8.75;4.95;;;;;;;18.21;100.00;100944.59;4978751;28;20057;-86
2021/07/09 06:04:30;;;;;;;6.78;4.47;;;;;;;18.33;100.00;100949.28;4978834;28;20046;-86
2021/07/09 06:07:01;;;;;;;9.30;4.72;;;;;;;18.17;100.00;100940.41;4979266;28;20026;-85
2021/07/09 06:09:27;;;;;;;7.60;4.70;;;;;;;18.15;100.00;100945.69;4978682;28;20077;-86
2021/07/09 06:12:04;;;;;;;9.70;4.15;;;;;;;18.25;100.00;100937.41;4978218;28;20058;-85
2021/07/09 06:14:29;;;;;;;10.98;4.82;;;;;;;18.45;100.00;100924.25;4978936;28;20029;-86
2021/07/09 06:16:57;;;;;;;11.65;4.22;;;;;;;18.50;100.00;100935.41;4996002;28;20026;-86
2021/07/09 06:19:25;;;;;;;10.93;4.57;;;;;;;18.40;100.00;100928.88;4995876;28;20022;-86
2021/07/09 06:21:51;;;;;;;8.35;4.45;;;;;;;18.42;100.00;100934.91;4978337;28;20037;-86
2021/07/09 06:24:17;;;;;;;11.18;4.47;;;;;;;18.46;100.00;100925.97;4996086;28;20035;-86
2021/07/09 06:26:42;;;;;;;8.32;4.40;;;;;;;18.21;100.00;100944.59;4978247;28;20051;-86
2021/07/09 06:29:08;;;;;;;8.55;4.50;;;;;;;18.31;100.00;100935.38;4978115;28;20037;-85
2021/07/09 06:31:34;;;;;;;8.60;4.70;;;;;;;18.35;100.00;100941.34;4977773;28;20034;-85
2021/07/09 06:33:59;;;;;;;8.10;4.22;;;;;;;18.35;100.00;100944.84;4995583;28;20034;-85
2021/07/09 06:36:25;;;;;;;8.95;4.53;;;;;;;18.21;100.00;100947.22;4978035;28;20030;-85
2021/07/09 06:38:50;;;;;;;8.35;4.82;;;;;;;18.24;100.00;100947.06;4978760;28;20035;-86
2021/07/09 06:41:23;;;;;;;8.07;4.15;;;;;;;18.34;100.00;100948.38;4978565;28;20022;-86
2021/07/09 06:43:49;;;;;;;8.60;4.30;;;;;;;18.36;100.00;100946.53;4995654;28;20506;-86
2021/07/09 06:46:14;;;;;;;8.45;4.78;;;;;;;18.44;100.00;100935.66;4978051;28;20030;-87
2021/07/09 06:48:40;;;;;;;8.43;4.20;;;;;;;18.37;100.00;100955.25;4995338;28;20038;-87
2021/07/09 06:51:10;;;;;;;9.50;4.50;;;;;;;18.38;100.00;100941.19;4977913;28;20030;-87
2021/07/09 06:53:35;;;;;;;9.57;4.38;;;;;;;18.42;100.00;100942.78;4977775;28;20465;-87
2021/07/09 06:56:00;;;;;;;11.07;4.72;;;;;;;18.63;100.00;100954.97;4995314;28;20057;-87
2021/07/09 06:58:31;;;;;;;8.27;4.30;;;;;;;18.64;100.00;100943.50;4977878;28;20077;-87
2021/07/09 07:01:06;;;;;;;8.75;4.45;;;;;;;18.52;100.00;100941.44;4977744;28;20123;-86
2021/07/09 07:03:48;;;;;;;9.70;4.53;;;;;;;18.33;100.00;100940.56;4978575;28;20026;-87
2021/07/09 07:07:08;;;;;;;12.65;4.72;;;;;;;18.17;100.00;100937.78;4980194;28;20026;-87
2021/07/09 07:19:30;;;;;;;10.23;3.80;;;;;;;18.11;100.00;100959.03;5315124;23;20350;-85
2021/07/09 07:21:58;;;;;;;8.90;3.78;;;;;;;18.16;100.00;100951.78;4977371;28;20034;-85
2021/07/09 07:24:23;;;;;;;6.82;4.15;;;;;;;18.02;100.00;100959.44;4977318;28;20022;-85
2021/07/09 07:26:49;;;;;;;7.63;3.35;;;;;;;18.04;100.00;100962.81;4977797;28;20088;-84
2021/07/09 07:29:14;;;;;;;8.90;3.80;;;;;;;18.19;100.00;100956.91;4994748;28;20470;-85
2021/07/09 07:31:39;;;;;;;9.07;3.38;;;;;;;18.23;100.00;100955.03;4978399;28;20137;-84
2021/07/09 07:34:04;;;;;;;7.10;2.92;;;;;;;18.30;100.00;100966.97;4977359;28;20026;-85
2021/07/09 07:36:30;;;;;;;6.40;3.00;;;;;;;18.35;100.00;100965.84;4977200;28;20429;-84
2021/07/09 07:38:55;;;;;;;8.95;2.70;;;;;;;18.33;100.00;100962.44;4994836;28;20034;-85
2021/07/09 07:41:21;;;;;;;9.25;2.72;;;;;;;18.40;100.00;100957.75;4977685;28;20112;-84
2021/07/09 07:43:46;;;;;;;6.85;2.35;;;;;;;18.54;100.00;100955.38;4977819;28;20026;-84
2021/07/09 07:46:13;;;;;;;6.20;2.85;;;;;;;18.50;100.00;100966.06;4977769;28;20044;-85
2021/07/09 07:48:39;;;;;;;8.35;3.03;;;;;;;18.33;100.00;100961.59;4995442;28;20097;-84
2021/07/09 07:51:04;;;;;;;5.53;2.50;;;;;;;18.54;100.00;100951.91;4977318;28;20172;-85
2021/07/09 07:53:34;;;;;;;9.90;2.70;;;;;;;18.37;100.00;100964.00;4994735;28;20033;-85
2021/07/09 07:56:00;;;;;;;6.22;2.35;;;;;;;18.64;100.00;100958.44;4994613;28;20478;-85
2021/07/09 07:58:25;;;;;;;6.32;2.60;;;;;;;18.74;100.00;100956.25;4976897;28;20172;-84
2021/07/09 08:00:50;;;;;;;6.65;2.60;;;;;;;18.81;100.00;100957.69;4977502;28;20037;-85
2021/07/09 08:03:15;;;;;;;8.43;2.45;;;;;;;18.88;100.00;100961.75;4978800;28;20053;-85
2021/07/09 08:05:40;;;;;;;7.85;1.80;;;;;;;18.87;100.00;100957.41;4978599;28;20038;-84
2021/07/09 08:08:06;;;;;;;5.65;2.28;;;;;;;18.50;100.00;100955.56;4979520;28;20023;-85
2021/07/09 08:10:31;;;;;;;6.07;2.40;;;;;;;18.69;100.00;100964.34;4978552;28;20129;-84
2021/07/09 08:12:57;;;;;;;7.28;2.10;;;;;;;18.60;100.00;100962.13;4978349;28;20045;-84
2021/07/09 08:15:22;;;;;;;6.18;2.28;;;;;;;18.53;100.00;100956.28;4978334;28;20031;-84
2021/07/09 08:17:48;;;;;;;7.47;2.30;;;;;;;18.55;100.00;100966.72;4996796;28;20031;-84
2021/07/09 08:20:13;;;;;;;5.70;2.38;;;;;;;18.50;100.00;100972.16;4977624;28;20040;-84
2021/07/09 08:22:38;;;;;;;5.18;2.05;;;;;;;18.53;100.00;100974.66;4976664;28;20022;-84
2021/07/09 08:25:08;;;;;;;5.13;2.20;;;;;;;18.63;100.00;100970.72;4994401;28;20022;-84
2021/07/09 08:27:37;;;;;;;5.18;1.92;;;;;;;18.77;100.00;100970.13;4976994;28;20426;-85
2021/07/09 08:30:02;;;;;;;6.13;2.08;;;;;;;18.75;100.00;100974.59;4977110;28;20122;-85
2021/07/09 08:32:28;;;;;;;9.45;2.40;;;;;;;18.66;100.00;100975.00;4978911;28;20031;-84
2021/07/09 08:34:54;;;;;;;6.45;2.20;;;;;;;18.50;100.00;100969.53;4998203;28;20149;-84
2021/07/09 08:37:19;;;;;;;4.38;2.20;;;;;;;18.72;100.00;100968.56;4980876;28;20065;-84
2021/07/09 08:39:45;;;;;;;6.65;2.53;;;;;;;18.76;100.00;100973.66;4998718;28;20107;-84
2021/07/09 08:42:10;;;;;;;8.00;2.45;;;;;;;18.80;100.00;100979.63;4982070;28;20027;-85
2021/07/09 08:44:35;;;;;;;7.35;2.35;;;;;;;18.96;100.00;100978.00;4981498;28;20445;-85
2021/07/09 08:47:00;;;;;;;7.55;2.80;;;;;;;19.03;100.00;100981.22;4998980;28;20033;-85
2021/07/09 08:49:26;;;;;;;6.32;2.60;;;;;;;18.83;100.00;100969.84;4981515;28;20604;-85
2021/07/09 08:51:51;;;;;;;9.98;2.60;;;;;;;19.08;100.00;100976.56;4998923;28;20375;-85
2021/07/09 08:54:18;;;;;;;7.30;2.13;;;;;;;19.27;100.00;100971.28;4981896;28;20037;-85
2021/07/09 08:56:45;;;;;;;6.55;2.97;;;;;;;19.35;100.00;100963.06;4982333;28;20027;-84
2021/07/09 08:59:10;;;;;;;8.57;3.05;;;;;;;19.37;100.00;100961.22;4982354;28;20026;-84
2021/07/09 09:01:57;;;;;;;5.55;2.95;;;;;;;19.07;100.00;100957.31;4999396;28;20026;-84
2021/07/09 09:04:28;;;;;;;5.75;2.63;;;;;;;19.36;100.00;100960.34;4999994;28;20026;-84
2021/07/09 09:07:00;;;;;;;6.05;2.78;;;;;;;19.41;100.00;100958.34;4982696;28;20029;-84
2021/07/09 09:09:26;;;;;;;8.13;3.00;;;;;;;19.43;100.00;100955.66;4999413;28;20022;-84
2021/07/09 09:12:27;;;;;;;6.90;2.97;;;;;;;19.72;100.00;100957.72;4999345;28;20034;-84
2021/07/09 09:14:53;;;;;;;8.48;3.28;;;;;;;19.69;100.00;100957.00;4977262;28;20045;-84
2021/07/09 09:17:31;;;;;;;7.00;2.97;;;;;;;19.82;100.00;100952.81;4998481;28;20030;-84
2021/07/09 09:20:06;;;;;;;8.73;2.80;;;;;;;19.81;100.00;100950.28;4981162;28;20029;-84
2021/07/09 09:22:34;;;;;;;6.53;2.90;;;;;;;19.84;100.00;100964.16;4998810;28;20113;-85
2021/07/09 09:25:00;;;;;;;6.32;2.80;;;;;;;19.83;100.00;100957.19;5003650;28;20026;-84
2021/07/09 09:27:25;;;;;;;7.57;3.00;;;;;;;20.29;100.00;100961.84;5004339;28;20027;-85
2021/07/09 09:29:50;;;;;;;5.32;2.55;;;;;;;20.54;100.00;100945.66;4980941;28;20076;-84
2021/07/09 09:32:16;;;;;;;7.68;2.47;;;;;;;20.33;100.00;100952.88;4982065;28;20030;-85
2021/07/09 09:34:43;;;;;;;8.10;2.95;;;;;;;20.34;100.00;100950.16;4998191;28;20026;-85
2021/07/09 09:37:10;;;;;;;8.43;2.92;;;;;;;20.55;100.00;100948.19;4998397;28;20109;-85
2021/07/09 09:39:42;;;;;;;8.18;2.53;;;;;;;20.59;100.00;100938.31;4996961;28;20486;-85
2021/07/09 09:42:17;;;;;;;10.48;3.42;;;;;;;20.63;100.00;100935.47;4997088;28;20049;-85
2021/07/09 09:44:43;;;;;;;5.90;2.88;;;;;;;20.75;99.42;100933.94;4979582;28;20026;-85
2021/07/09 09:47:19;;;;;;;6.35;2.78;;;;;;;20.76;100.00;100951.47;4995910;28;20028;-85
2021/07/09 09:49:52;;;;;;;4.90;2.22;;;;;;;20.31;100.00;100949.47;4979724;28;20023;-85
2021/07/09 09:52:37;;;;;;;7.80;2.25;;;;;;;20.45;100.00;100947.81;4997323;28;20112;-85
2021/07/09 09:55:08;;;;;;;6.15;2.30;;;;;;;20.37;99.29;100954.41;5013978;23;20069;-87
2021/07/09 09:57:34;;;;;;;6.13;2.33;;;;;;;20.41;100.00;100940.13;4985088;28;20055;-87
2021/07/09 09:59:59;;;;;;;5.07;2.08;;;;;;;20.49;100.00;100945.00;4987122;28;20022;-87
2021/07/09 10:02:24;;;;;;;6.85;2.33;;;;;;;20.17;100.00;100947.56;4986385;28;20412;-87
2021/07/09 10:05:16;;;;;;;5.25;1.90;;;;;;;20.28;100.00;100944.34;4987278;28;20058;-87
2021/07/09 10:07:44;;;;;;;8.88;2.60;;;;;;;20.45;100.00;100934.63;4973834;28;20060;-87
2021/07/09 10:10:14;;;;;;;7.55;2.50;;;;;;;20.30;100.00;100935.44;4998422;28;20029;-86
2021/07/09 10:13:09;;;;;;;7.13;2.28;;;;;;;20.26;100.00;100941.81;5002752;28;20038;-86
2021/07/09 10:15:35;;;;;;;5.13;2.78;;;;;;;20.12;100.00;100946.94;5000766;28;20025;-86
2021/07/09 10:18:16;;;;;;;5.57;2.30;;;;;;;20.10;100.00;100938.25;5002681;28;20033;-86
2021/07/09 10:20:52;;;;;;;6.05;2.42;;;;;;;20.12;100.00;100931.13;5003841;28;20114;-86
2021/07/09 10:23:20;;;;;;;7.28;2.58;;;;;;;20.29;100.00;100922.34;5003070;28;20031;-84
2021/07/09 10:25:53;;;;;;;7.05;2.03;;;;;;;20.34;100.00;100921.16;5002466;28;20053;-86
2021/07/09 10:28:22;;;;;;;6.17;2.47;;;;;;;20.30;100.00;100919.63;5017709;28;20034;-86
2021/07/09 10:30:56;;;;;;;7.35;2.47;;;;;;;20.27;100.00;100922.44;4999398;28;20011;-86
2021/07/09 10:33:35;;;;;;;6.07;2.25;;;;;;;20.36;99.73;100914.03;4998520;28;20042;-83
2021/07/09 10:36:33;;;;;;;10.00;2.13;;;;;;;20.51;100.00;100920.28;5019523;28;20030;-85
2021/07/09 10:39:11;;;;;;;10.30;2.20;;;;;;;20.40;100.00;100918.19;5000894;28;20030;-86
2021/07/09 10:41:55;;;;;;;4.57;2.08;;;;;;;20.15;98.93;100923.91;4996892;28;20045;-87
2021/07/09 10:44:21;;;;;;;7.00;2.28;;;;;;;20.09;99.53;100928.66;4994952;28;20022;-87
2021/07/09 10:47:16;;;;;;;5.90;2.22;;;;;;;20.08;99.46;100922.53;4998348;28;20041;-84
2021/07/09 10:49:54;;;;;;;3.90;1.80;;;;;;;20.22;100.00;100916.53;4992711;28;20077;-86
2021/07/09 10:53:02;;;;;;;5.78;2.20;;;;;;;20.05;100.00;100921.88;5009359;28;20030;-86
2021/07/09 10:55:36;;;;;;;7.70;2.75;;;;;;;20.14;100.00;100916.97;5015284;28;20038;-86
2021/07/09 10:58:08;;;;;;;8.93;2.25;;;;;;;20.20;98.87;100921.91;4999907;28;20034;-86
2021/07/09 11:01:21;;;;;;;8.15;2.58;;;;;;;20.23;100.00;100921.75;4995064;28;20343;-86
2021/07/09 11:03:49;;;;;;;5.43;2.20;;;;;;;20.39;100.00;100907.75;4997907;28;20102;-86
2021/07/09 11:06:47;;;;;;;10.60;2.33;;;;;;;20.09;100.00;100910.22;5000139;28;20010;-86
2021/07/09 11:09:13;;;;;;;5.88;2.10;;;;;;;20.06;100.00;100911.22;5013284;28;20043;-86
2021/07/09 11:12:06;;;;;;;5.35;2.15;;;;;;;20.08;100.00;100921.69;5001327;28;20038;-86
2021/07/09 11:14:56;;;;;;;7.93;2.35;;;;;;;20.08;100.00;100919.06;5001957;28;20029;-86
2021/07/09 11:18:03;;;;;;;5.57;1.98;;;;;;;19.99;100.00;100921.25;5001082;28;20028;-86
2021/07/09 11:20:44;;;;;;;5.25;1.80;;;;;;;19.98;100.00;100921.31;4976240;28;20045;-86
2021/07/09 11:23:35;;;;;;;5.57;2.45;;;;;;;19.97;100.00;100917.81;5001019;28;20034;-86
2021/07/09 11:26:14;;;;;;;7.43;2.53;;;;;;;19.89;100.00;100916.50;5001639;28;20014;-86
2021/07/09 11:28:50;;;;;;;4.53;2.08;;;;;;;19.96;100.00;100918.75;5001820;28;20026;-87
2021/07/09 11:31:42;;;;;;;8.25;2.33;;;;;;;19.93;100.00;100913.66;4999790;28;20045;-86